Time;durP1;ratioP1;P1;durP2;ratioP2;P2;SDS_P1;SDS_P2;PMS_P1;PMS_P2;Temp;Humidity;BMP_temperature;BMP_pressure;BME280_temperature;BME280_humidity;BME280_pressure;Samples;Min_cycle;Max_cycle;Signal;HPM_P1;HPM_P2
2021/08/02 00:00:26;;;;;;;5.20;1.73;;;16.50;99.90;;;;;;4938171;28;20721;-71
2021/08/02 00:03:18;;;;;;;3.10;1.60;;;16.50;99.90;;;;;;4936977;28;20646;-71
2021/08/02 00:05:52;;;;;;;2.10;1.90;;;16.50;99.90;;;;;;4939159;29;20697;-71
2021/08/02 00:08:25;;;;;;;2.87;2.30;;;16.40;99.90;;;;;;4939276;28;21170;-71
2021/08/02 00:10:55;;;;;;;4.07;2.00;;;16.40;99.90;;;;;;4937387;28;21304;-71
2021/08/02 00:13:28;;;;;;;2.63;1.93;;;16.40;99.90;;;;;;4925563;28;20804;-71
2021/08/02 00:15:58;;;;;;;3.70;2.13;;;16.40;99.90;;;;;;4938178;28;20707;-70
2021/08/02 00:18:26;;;;;;;4.07;2.40;;;16.40;99.90;;;;;;4936440;28;20653;-71
2021/08/02 00:20:52;;;;;;;3.90;2.60;;;16.40;99.90;;;;;;4941384;28;20771;-71
2021/08/02 00:23:30;;;;;;;2.13;1.93;;;16.40;99.90;;;;;;4938559;28;20726;-71
2021/08/02 00:26:00;;;;;;;2.07;1.87;;;16.50;99.90;;;;;;4932080;29;20635;-71
2021/08/02 00:28:31;;;;;;;1.83;1.73;;;16.50;99.90;;;;;;4936898;28;20716;-71
2021/08/02 00:31:05;;;;;;;2.60;2.13;;;16.50;99.90;;;;;;4934887;28;21190;-71
2021/08/02 00:33:31;;;;;;;3.20;2.00;;;16.50;99.90;;;;;;4938323;28;20761;-70
2021/08/02 00:36:21;;;;;;;2.03;1.93;;;16.50;99.90;;;;;;4937810;29;20619;-71
2021/08/02 00:39:01;;;;;;;3.00;2.20;;;16.50;99.90;;;;;;4929227;28;20747;-71
2021/08/02 00:42:04;;;;;;;2.40;2.03;;;16.50;99.90;;;;;;4942527;28;20636;-70
2021/08/02 00:45:04;;;;;;;3.87;2.20;;;16.50;99.90;;;;;;4936019;28;20635;-70
2021/08/02 00:47:43;;;;;;;3.57;2.60;;;16.50;99.90;;;;;;4935545;28;20765;-70
2021/08/02 00:50:28;;;;;;;2.43;2.20;;;16.40;99.90;;;;;;4941226;28;21233;-70
2021/08/02 00:52:57;;;;;;;3.53;2.07;;;16.40;99.90;;;;;;4936861;28;20649;-71
2021/08/02 00:55:27;;;;;;;3.30;1.87;;;16.40;99.90;;;;;;4941625;28;20637;-71
2021/08/02 00:57:55;;;;;;;3.80;1.93;;;16.40;99.90;;;;;;4931900;28;20654;-71
2021/08/02 01:00:23;;;;;;;2.90;1.97;;;16.40;99.90;;;;;;4938406;28;20987;-71
2021/08/02 01:02:54;;;;;;;3.40;2.17;;;16.40;99.90;;;;;;4936074;28;20635;-70
2021/08/02 01:05:27;;;;;;;3.23;2.20;;;16.40;99.90;;;;;;4937133;29;20715;-71
2021/08/02 01:08:03;;;;;;;2.77;1.93;;;16.40;99.90;;;;;;4936623;29;21097;-71
2021/08/02 01:10:35;;;;;;;3.73;1.83;;;16.40;99.90;;;;;;4935174;29;20761;-71
2021/08/02 01:13:05;;;;;;;2.50;2.27;;;16.40;99.90;;;;;;4938604;28;20643;-70
2021/08/02 01:15:33;;;;;;;3.47;1.93;;;16.40;99.90;;;;;;4938920;28;21265;-70
2021/08/02 01:18:01;;;;;;;2.27;2.07;;;16.40;99.90;;;;;;4941126;28;21291;-71
2021/08/02 01:20:32;;;;;;;1.93;1.60;;;16.40;99.90;;;;;;4930714;28;20616;-70
2021/08/02 01:23:03;;;;;;;1.90;1.80;;;16.40;99.90;;;;;;4933192;28;20695;-71
2021/08/02 01:25:37;;;;;;;2.00;1.77;;;16.40;99.90;;;;;;4941281;28;21245;-70
2021/08/02 01:28:15;;;;;;;2.40;1.77;;;16.40;99.90;;;;;;4931052;29;21243;-71
2021/08/02 01:30:44;;;;;;;3.27;2.10;;;16.40;99.90;;;;;;4931434;28;20792;-71
2021/08/02 01:33:13;;;;;;;2.60;1.80;;;16.40;99.90;;;;;;4931376;28;20718;-71
2021/08/02 01:35:42;;;;;;;2.53;1.80;;;16.40;99.90;;;;;;4933405;28;20624;-71
2021/08/02 01:38:10;;;;;;;2.03;1.83;;;16.40;99.90;;;;;;4937841;28;20666;-71
2021/08/02 01:40:36;;;;;;;2.90;2.13;;;16.40;99.90;;;;;;4935527;29;21119;-71
2021/08/02 01:43:04;;;;;;;3.13;1.60;;;16.40;99.90;;;;;;4934849;28;20710;-71
2021/08/02 01:45:48;;;;;;;4.30;2.30;;;16.40;99.90;;;;;;4938591;28;20186;-71
2021/08/02 01:48:39;;;;;;;3.30;1.90;;;16.40;99.90;;;;;;4925972;28;20627;-70
2021/08/02 01:51:15;;;;;;;3.80;1.90;;;16.40;99.90;;;;;;4959266;28;20626;-71
2021/08/02 01:54:05;;;;;;;5.83;1.83;;;16.30;99.90;;;;;;4943265;28;20670;-70
2021/08/02 01:56:40;;;;;;;2.30;1.57;;;16.30;99.90;;;;;;4938814;28;20662;-71
2021/08/02 01:59:16;;;;;;;2.50;1.77;;;16.30;99.90;;;;;;4935320;28;20669;-71
2021/08/02 02:01:48;;;;;;;4.80;2.10;;;16.30;99.90;;;;;;4935883;28;20643;-70
2021/08/02 02:04:16;;;;;;;3.33;2.10;;;16.30;99.90;;;;;;4945240;29;20657;-70
2021/08/02 02:06:48;;;;;;;3.70;1.63;;;16.30;99.90;;;;;;4932854;28;20658;-71
2021/08/02 02:09:16;;;;;;;3.50;1.80;;;16.30;99.90;;;;;;4938662;28;20726;-70
2021/08/02 02:11:47;;;;;;;2.80;1.70;;;16.20;99.90;;;;;;4935686;28;20650;-71
2021/08/02 02:14:13;;;;;;;2.53;1.57;;;16.20;99.90;;;;;;4945877;29;21055;-71
2021/08/02 02:16:44;;;;;;;2.87;1.63;;;16.20;99.90;;;;;;4942810;29;20651;-71
2021/08/02 02:19:18;;;;;;;2.27;1.70;;;16.20;99.90;;;;;;4937009;28;20651;-71
2021/08/02 02:21:49;;;;;;;2.83;1.73;;;16.20;99.90;;;;;;4933324;28;20698;-70
2021/08/02 02:24:18;;;;;;;2.27;1.70;;;16.20;99.90;;;;;;4941695;28;20693;-71
2021/08/02 02:26:44;;;;;;;2.20;1.70;;;16.20;99.90;;;;;;4935815;28;21160;-71
2021/08/02 02:29:14;;;;;;;5.47;1.70;;;16.20;99.90;;;;;;4941871;28;20635;-70
2021/08/02 02:31:42;;;;;;;1.80;1.70;;;16.10;99.90;;;;;;4935961;28;20706;-71
2021/08/02 02:34:10;;;;;;;2.50;1.60;;;16.10;99.90;;;;;;4940275;29;21152;-71
2021/08/02 02:36:39;;;;;;;3.50;1.77;;;16.10;99.90;;;;;;4938499;29;20898;-71
2021/08/02 02:39:08;;;;;;;2.20;1.60;;;16.10;99.90;;;;;;4945344;28;20653;-71
2021/08/02 02:41:34;;;;;;;2.43;1.70;;;16.10;99.90;;;;;;4939945;28;20635;-71
2021/08/02 02:44:03;;;;;;;1.53;1.40;;;16.10;99.90;;;;;;4944068;28;20667;-71
2021/08/02 02:46:30;;;;;;;1.80;1.70;;;16.00;99.90;;;;;;4939627;28;20684;-71
2021/08/02 02:49:00;;;;;;;1.43;1.33;;;16.10;99.90;;;;;;4941697;28;20659;-71
2021/08/02 02:51:27;;;;;;;1.80;1.70;;;16.10;99.90;;;;;;4937625;28;21051;-71
2021/08/02 02:53:54;;;;;;;3.07;2.03;;;16.10;99.90;;;;;;4940768;29;20619;-71
2021/08/02 02:56:23;;;;;;;2.30;1.90;;;16.00;99.90;;;;;;4936611;28;20749;-71
2021/08/02 02:58:50;;;;;;;2.53;1.60;;;16.00;99.90;;;;;;4937088;28;21012;-71
2021/08/02 03:01:19;;;;;;;2.10;1.53;;;16.00;99.90;;;;;;4940575;28;22741;-71
2021/08/02 03:03:51;;;;;;;1.87;1.53;;;16.10;99.90;;;;;;4937345;29;20626;-71
2021/08/02 03:06:18;;;;;;;1.97;1.60;;;16.10;99.90;;;;;;4943883;28;21301;-71
2021/08/02 03:08:45;;;;;;;3.30;1.83;;;16.10;99.90;;;;;;4943566;28;21281;-71
2021/08/02 03:11:18;;;;;;;3.10;1.80;;;16.00;99.90;;;;;;4935727;28;20684;-71
2021/08/02 03:13:44;;;;;;;2.80;1.73;;;16.00;99.90;;;;;;4944117;28;20623;-71
2021/08/02 03:16:10;;;;;;;3.10;1.63;;;16.10;99.90;;;;;;4947097;28;21180;-71
2021/08/02 03:18:36;;;;;;;2.63;2.10;;;16.10;99.90;;;;;;4942180;28;20679;-71
2021/08/02 03:21:03;;;;;;;2.93;1.80;;;16.00;99.90;;;;;;4937493;28;20191;-71
2021/08/02 03:23:37;;;;;;;2.97;2.10;;;16.00;99.90;;;;;;4943043;28;20658;-71
2021/08/02 03:26:12;;;;;;;3.97;1.77;;;15.90;99.90;;;;;;4939723;29;20627;-71
2021/08/02 03:28:53;;;;;;;4.00;2.23;;;16.00;99.90;;;;;;4933215;28;20650;-72
2021/08/02 03:31:34;;;;;;;4.20;2.13;;;16.00;99.90;;;;;;4940028;28;20638;-71
2021/08/02 03:34:01;;;;;;;3.77;1.60;;;16.00;99.90;;;;;;4944255;28;20695;-71
2021/08/02 03:36:28;;;;;;;3.23;1.87;;;16.00;99.90;;;;;;4942916;28;20812;-71
2021/08/02 03:38:58;;;;;;;2.30;1.43;;;16.00;99.90;;;;;;4945532;28;20645;-71
2021/08/02 03:41:24;;;;;;;1.83;1.70;;;16.00;99.90;;;;;;4936429;28;20722;-71
2021/08/02 03:43:55;;;;;;;4.53;1.70;;;16.00;99.90;;;;;;4941211;29;20626;-71
2021/08/02 03:46:25;;;;;;;1.80;1.70;;;16.00;99.90;;;;;;4933365;29;20926;-71
2021/08/02 03:48:51;;;;;;;3.03;1.70;;;16.00;99.90;;;;;;4939175;28;20710;-71
2021/08/02 03:51:16;;;;;;;5.17;2.00;;;16.00;99.90;;;;;;4940600;28;21617;-70
2021/08/02 03:53:44;;;;;;;1.90;1.70;;;16.00;99.90;;;;;;4936372;28;20356;-71
2021/08/02 03:56:11;;;;;;;2.30;1.83;;;16.00;99.90;;;;;;4939255;28;20287;-71
2021/08/02 03:58:37;;;;;;;2.77;1.80;;;16.00;99.90;;;;;;4941842;28;21025;-71
2021/08/02 04:01:06;;;;;;;2.70;1.50;;;16.00;99.90;;;;;;4936627;29;20611;-71
2021/08/02 04:03:36;;;;;;;2.63;1.83;;;16.00;99.90;;;;;;4932372;28;20642;-71
2021/08/02 04:06:04;;;;;;;2.73;1.80;;;16.00;99.90;;;;;;4942521;29;21207;-71
2021/08/02 04:08:30;;;;;;;3.63;1.80;;;16.00;99.90;;;;;;4943685;28;20737;-71
2021/08/02 04:11:00;;;;;;;2.50;1.73;;;16.00;99.90;;;;;;4947651;28;20884;-71
2021/08/02 04:13:26;;;;;;;4.57;1.80;;;16.00;99.90;;;;;;4937734;28;20252;-71
2021/08/02 04:15:51;;;;;;;2.57;1.60;;;15.90;99.90;;;;;;4942115;28;21210;-71
2021/08/02 04:18:17;;;;;;;3.17;1.60;;;16.10;99.90;;;;;;4941357;28;20274;-71
2021/08/02 04:20:45;;;;;;;2.40;1.43;;;16.10;99.90;;;;;;4935195;28;20215;-71
2021/08/02 04:23:12;;;;;;;2.40;1.57;;;16.10;99.90;;;;;;4942052;28;20227;-71
2021/08/02 04:25:40;;;;;;;2.30;1.73;;;16.10;99.90;;;;;;4940140;28;20682;-71
2021/08/02 04:28:06;;;;;;;2.53;1.97;;;16.10;99.90;;;;;;4930390;28;21415;-71
2021/08/02 04:30:33;;;;;;;1.90;1.57;;;16.10;99.90;;;;;;4937015;28;20647;-71
2021/08/02 04:32:59;;;;;;;2.77;1.70;;;16.10;99.90;;;;;;4938327;28;20238;-71
2021/08/02 04:35:24;;;;;;;5.07;1.90;;;16.10;99.90;;;;;;4940465;28;21269;-71
2021/08/02 04:37:50;;;;;;;4.40;2.23;;;16.10;99.90;;;;;;4942503;28;20438;-71
2021/08/02 04:40:16;;;;;;;4.20;1.83;;;16.10;99.90;;;;;;4934743;28;20362;-71
2021/08/02 04:42:43;;;;;;;1.93;1.73;;;16.20;99.90;;;;;;4938010;28;20228;-71
2021/08/02 04:45:09;;;;;;;3.13;2.30;;;16.20;99.90;;;;;;4932353;28;20576;-71
2021/08/02 04:47:35;;;;;;;2.13;1.83;;;16.10;99.90;;;;;;4937814;28;20969;-71
2021/08/02 04:50:00;;;;;;;6.00;2.00;;;16.20;99.90;;;;;;4936806;28;20666;-71
2021/08/02 04:52:28;;;;;;;2.40;1.90;;;16.20;99.90;;;;;;4942826;28;20254;-71
2021/08/02 04:54:54;;;;;;;4.30;1.93;;;16.20;99.90;;;;;;4945867;28;20196;-71
2021/08/02 04:57:25;;;;;;;2.97;1.90;;;16.20;99.90;;;;;;4941091;29;20709;-71
2021/08/02 04:59:53;;;;;;;4.23;2.00;;;16.20;99.90;;;;;;4942604;28;20567;-71
2021/08/02 05:02:19;;;;;;;3.70;1.97;;;16.30;99.90;;;;;;4942392;28;20673;-71
2021/08/02 05:04:44;;;;;;;4.40;2.10;;;16.30;99.90;;;;;;4940887;28;21155;-70
2021/08/02 05:07:10;;;;;;;3.40;1.90;;;16.30;99.90;;;;;;4937292;28;20274;-71
2021/08/02 05:09:38;;;;;;;3.00;1.93;;;16.30;99.90;;;;;;4939228;28;20239;-70
2021/08/02 05:12:04;;;;;;;2.93;2.23;;;16.30;99.90;;;;;;4940045;28;20224;-70
2021/08/02 05:14:30;;;;;;;2.60;1.80;;;16.40;99.90;;;;;;4941166;28;20617;-70
2021/08/02 05:16:55;;;;;;;2.33;2.10;;;16.40;99.90;;;;;;4940760;29;20678;-70
2021/08/02 05:19:23;;;;;;;5.43;2.50;;;16.40;99.90;;;;;;4938994;28;20211;-70
2021/08/02 05:21:51;;;;;;;4.20;2.03;;;16.40;99.90;;;;;;4936615;28;20227;-71
2021/08/02 05:24:20;;;;;;;2.20;1.83;;;16.40;99.90;;;;;;4940977;28;20607;-71
2021/08/02 05:26:47;;;;;;;4.97;1.83;;;16.50;99.90;;;;;;4938840;28;20622;-71
2021/08/02 05:29:15;;;;;;;4.20;2.20;;;16.50;99.90;;;;;;4943929;28;20782;-70
2021/08/02 05:31:43;;;;;;;2.87;1.90;;;16.60;99.90;;;;;;4943075;28;20642;-71
2021/08/02 05:34:11;;;;;;;2.10;1.90;;;16.60;99.90;;;;;;4939400;29;20639;-73
2021/08/02 05:36:38;;;;;;;3.37;1.87;;;16.60;99.90;;;;;;4931511;28;21247;-71
2021/08/02 05:39:03;;;;;;;2.23;1.80;;;16.50;99.90;;;;;;4925144;28;20783;-71
2021/08/02 05:41:29;;;;;;;3.33;2.03;;;16.60;99.90;;;;;;4932727;28;20764;-71
2021/08/02 05:43:57;;;;;;;2.30;2.10;;;16.60;99.90;;;;;;4936369;28;20183;-71
2021/08/02 05:46:22;;;;;;;3.23;1.73;;;16.60;99.90;;;;;;4944179;28;20271;-71
2021/08/02 05:48:48;;;;;;;2.53;1.80;;;16.60;99.90;;;;;;4945921;28;21341;-71
2021/08/02 05:51:14;;;;;;;3.07;2.10;;;16.70;99.90;;;;;;4939370;28;20652;-70
2021/08/02 05:53:40;;;;;;;3.23;2.10;;;16.70;99.90;;;;;;4936829;28;20202;-71
2021/08/02 05:56:05;;;;;;;4.33;1.80;;;16.70;99.90;;;;;;4940567;28;20627;-72
2021/08/02 05:58:31;;;;;;;3.97;2.43;;;16.60;99.90;;;;;;4940255;28;20666;-72
2021/08/02 06:00:57;;;;;;;5.07;2.20;;;16.50;99.90;;;;;;4938579;28;20199;-72
2021/08/02 06:03:25;;;;;;;3.37;2.50;;;16.50;99.90;;;;;;4934193;28;20311;-72
2021/08/02 06:05:51;;;;;;;3.30;2.33;;;16.50;99.90;;;;;;4924337;28;23612;-72
2021/08/02 06:08:16;;;;;;;3.13;1.90;;;16.50;99.90;;;;;;4935990;28;20798;-71
2021/08/02 06:10:42;;;;;;;3.73;2.23;;;16.60;99.90;;;;;;4938086;28;20312;-72
2021/08/02 06:13:07;;;;;;;3.93;2.40;;;16.60;99.90;;;;;;4938445;28;20710;-72
2021/08/02 06:15:33;;;;;;;1.90;1.73;;;16.70;99.90;;;;;;4934778;28;20184;-71
2021/08/02 06:17:58;;;;;;;3.00;1.80;;;16.80;99.90;;;;;;4944087;28;20215;-72
2021/08/02 06:20:24;;;;;;;2.80;1.80;;;16.70;99.90;;;;;;4943480;29;20632;-72
2021/08/02 06:22:50;;;;;;;3.30;2.00;;;16.60;99.90;;;;;;4939370;28;20773;-71
2021/08/02 06:25:16;;;;;;;1.87;1.47;;;16.70;99.90;;;;;;4944569;28;20615;-71
2021/08/02 06:27:41;;;;;;;2.30;1.70;;;16.70;99.90;;;;;;4954146;28;20569;-71
2021/08/02 06:30:07;;;;;;;3.00;1.90;;;16.70;99.90;;;;;;4941131;28;20308;-72
2021/08/02 06:32:33;;;;;;;1.97;1.60;;;16.70;99.90;;;;;;4940665;28;20281;-72
2021/08/02 06:34:58;;;;;;;2.23;1.47;;;16.70;99.90;;;;;;4939444;28;20630;-72
2021/08/02 06:37:24;;;;;;;2.10;1.53;;;16.70;99.90;;;;;;4940552;28;20203;-72
2021/08/02 06:39:50;;;;;;;2.60;1.73;;;16.80;99.90;;;;;;4935052;28;20626;-72
2021/08/02 06:42:16;;;;;;;3.97;1.70;;;16.90;99.90;;;;;;4935168;28;20289;-72
2021/08/02 06:44:43;;;;;;;4.57;2.07;;;16.90;99.90;;;;;;4932104;28;20737;-71
2021/08/02 06:47:09;;;;;;;3.87;1.70;;;17.00;99.90;;;;;;4937770;28;20613;-72
2021/08/02 06:49:34;;;;;;;3.30;2.07;;;17.10;99.90;;;;;;4938133;28;20882;-72
2021/08/02 06:52:00;;;;;;;2.40;1.77;;;17.20;99.90;;;;;;4937328;28;20746;-71
2021/08/02 06:54:26;;;;;;;2.00;1.80;;;17.20;99.90;;;;;;4933936;29;20245;-72
2021/08/02 06:56:51;;;;;;;3.00;1.80;;;17.20;99.90;;;;;;4933846;28;20270;-72
2021/08/02 06:59:17;;;;;;;3.20;1.50;;;17.20;99.90;;;;;;4938488;28;20215;-73
2021/08/02 07:01:42;;;;;;;2.13;1.93;;;17.30;99.90;;;;;;4933709;28;20226;-73
2021/08/02 07:04:08;;;;;;;2.80;1.60;;;17.40;99.90;;;;;;4934959;28;20873;-72
2021/08/02 07:06:33;;;;;;;3.30;1.90;;;17.50;99.90;;;;;;4938100;28;20197;-72
2021/08/02 07:08:59;;;;;;;3.03;1.97;;;17.50;99.90;;;;;;4937418;28;20215;-72
2021/08/02 07:11:28;;;;;;;2.73;2.00;;;17.50;99.90;;;;;;4939037;28;20247;-72
2021/08/02 07:13:54;;;;;;;3.53;1.80;;;17.40;99.90;;;;;;4937141;28;20717;-72
2021/08/02 07:16:21;;;;;;;2.60;2.00;;;17.60;99.90;;;;;;4940886;28;21194;-72
2021/08/02 07:18:47;;;;;;;2.03;1.77;;;17.60;99.90;;;;;;4942246;28;21165;-72
2021/08/02 07:21:15;;;;;;;3.33;1.93;;;17.70;99.90;;;;;;4938469;28;20619;-71
2021/08/02 07:23:40;;;;;;;3.50;1.87;;;17.70;99.90;;;;;;4934468;28;20234;-73
2021/08/02 07:26:06;;;;;;;2.17;1.93;;;17.80;99.90;;;;;;4938053;29;20706;-73
2021/08/02 07:28:32;;;;;;;2.23;2.10;;;17.70;99.90;;;;;;4937638;28;20796;-72
2021/08/02 07:30:57;;;;;;;3.10;2.00;;;17.60;99.90;;;;;;4932979;28;20631;-72
2021/08/02 07:33:23;;;;;;;2.90;2.50;;;17.50;99.90;;;;;;4935144;28;21595;-72
2021/08/02 07:35:48;;;;;;;3.90;2.53;;;17.60;99.90;;;;;;4940519;28;20203;-73
2021/08/02 07:38:14;;;;;;;3.90;2.03;;;17.60;99.90;;;;;;4939575;28;20257;-73
2021/08/02 07:40:40;;;;;;;2.63;2.10;;;17.50;99.90;;;;;;4937587;28;20203;-73
2021/08/02 07:43:06;;;;;;;2.40;2.23;;;17.30;99.90;;;;;;4935206;28;20228;-72
2021/08/02 07:45:32;;;;;;;3.87;2.37;;;17.10;99.90;;;;;;4942611;28;20486;-72
2021/08/02 07:47:57;;;;;;;4.23;2.40;;;17.10;99.90;;;;;;4945761;28;20761;-72
2021/08/02 07:50:23;;;;;;;3.13;2.20;;;17.10;99.90;;;;;;4946506;29;20190;-72
2021/08/02 07:52:51;;;;;;;2.43;2.20;;;17.00;99.90;;;;;;4946461;28;20610;-71
2021/08/02 07:55:17;;;;;;;2.03;1.93;;;17.10;99.90;;;;;;4945914;28;20215;-72
2021/08/02 07:57:45;;;;;;;1.97;1.80;;;17.10;99.90;;;;;;4945477;29;20657;-72
2021/08/02 08:00:11;;;;;;;2.47;1.80;;;17.20;99.90;;;;;;4946913;28;20613;-72
2021/08/02 08:02:37;;;;;;;3.00;2.27;;;17.20;99.90;;;;;;4943757;28;20721;-72
2021/08/02 08:05:03;;;;;;;2.73;1.93;;;17.20;99.90;;;;;;4941916;28;20623;-72
2021/08/02 08:07:29;;;;;;;3.77;1.90;;;17.20;99.90;;;;;;4942544;29;20668;-72
2021/08/02 08:09:54;;;;;;;3.50;2.00;;;17.20;99.90;;;;;;4945996;28;20569;-71
2021/08/02 08:12:21;;;;;;;2.40;1.83;;;17.40;99.90;;;;;;4941048;28;20643;-72
2021/08/02 08:14:46;;;;;;;3.07;2.20;;;17.40;99.90;;;;;;4946223;28;20588;-71
2021/08/02 08:17:12;;;;;;;2.50;1.90;;;17.50;99.90;;;;;;4945051;28;21222;-71
2021/08/02 08:19:37;;;;;;;3.43;1.60;;;17.50;99.90;;;;;;4943510;28;20250;-71
2021/08/02 08:22:03;;;;;;;2.70;2.20;;;17.60;99.90;;;;;;4943162;28;20239;-71
2021/08/02 08:24:29;;;;;;;2.40;1.90;;;17.70;99.90;;;;;;4932075;28;20296;-72
2021/08/02 08:26:54;;;;;;;2.30;1.83;;;17.80;99.90;;;;;;4945757;28;20262;-72
2021/08/02 08:29:20;;;;;;;3.80;1.80;;;17.80;99.90;;;;;;4935986;28;20219;-71
2021/08/02 08:31:45;;;;;;;3.10;1.80;;;17.90;99.90;;;;;;4911836;28;20683;-71
2021/08/02 08:34:11;;;;;;;2.03;1.80;;;18.00;99.90;;;;;;4940452;28;20532;-72
2021/08/02 08:36:36;;;;;;;3.40;2.20;;;17.90;99.90;;;;;;4943114;28;20195;-71
2021/08/02 08:39:04;;;;;;;2.77;2.30;;;17.90;99.90;;;;;;4939006;28;20266;-71
2021/08/02 08:41:30;;;;;;;1.83;1.63;;;18.00;99.90;;;;;;4925974;28;20235;-74
2021/08/02 08:43:55;;;;;;;2.63;1.60;;;17.90;99.90;;;;;;4923592;28;20643;-74
2021/08/02 08:46:23;;;;;;;2.53;2.00;;;18.00;99.90;;;;;;4933160;28;20698;-72
2021/08/02 08:48:49;;;;;;;2.57;1.67;;;18.10;99.90;;;;;;4933545;28;20235;-72
2021/08/02 08:51:17;;;;;;;4.07;2.00;;;18.20;99.90;;;;;;4927239;28;20710;-73
2021/08/02 08:53:44;;;;;;;1.90;1.73;;;18.20;99.90;;;;;;4924348;28;20722;-72
2021/08/02 08:56:13;;;;;;;3.73;1.80;;;18.20;99.90;;;;;;4924857;28;20631;-71
2021/08/02 08:58:39;;;;;;;4.20;2.10;;;18.40;99.90;;;;;;4946518;28;20801;-72
2021/08/02 09:01:05;;;;;;;2.57;1.57;;;18.40;99.90;;;;;;4929703;28;20679;-72
2021/08/02 09:03:31;;;;;;;3.70;1.67;;;18.70;99.90;;;;;;4924831;28;20264;-72
2021/08/02 09:06:05;;;;;;;3.20;1.97;;;18.70;99.90;;;;;;4930123;28;20630;-72
2021/08/02 09:08:39;;;;;;;2.87;1.70;;;18.70;99.90;;;;;;4921474;28;20670;-72
2021/08/02 09:11:05;;;;;;;2.27;1.50;;;18.70;99.90;;;;;;4929958;28;20706;-72
2021/08/02 09:13:33;;;;;;;3.70;1.63;;;18.80;99.90;;;;;;4930164;28;20702;-72
2021/08/02 09:16:09;;;;;;;4.43;1.80;;;18.80;99.90;;;;;;4939035;28;20616;-72
2021/08/02 09:18:35;;;;;;;3.27;2.00;;;18.80;99.90;;;;;;4929537;28;20797;-71
2021/08/02 09:21:07;;;;;;;5.20;2.00;;;18.80;99.90;;;;;;4937536;28;20618;-72
2021/08/02 09:23:33;;;;;;;3.20;1.70;;;18.90;99.90;;;;;;4925805;28;20313;-71
2021/08/02 09:26:01;;;;;;;2.87;1.73;;;19.00;99.90;;;;;;4938914;28;20641;-71
2021/08/02 09:28:28;;;;;;;3.60;2.00;;;19.10;99.90;;;;;;4937007;28;21126;-72
2021/08/02 09:31:02;;;;;;;4.10;1.43;;;19.10;99.90;;;;;;4938631;28;20666;-72
2021/08/02 09:33:42;;;;;;;2.03;1.70;;;19.00;99.90;;;;;;4940022;28;20651;-71
2021/08/02 09:36:07;;;;;;;2.70;1.70;;;19.00;99.90;;;;;;4935395;29;20695;-72
2021/08/02 09:38:33;;;;;;;5.10;1.87;;;19.00;99.90;;;;;;4938327;28;20840;-74
2021/08/02 09:40:59;;;;;;;1.80;1.47;;;19.00;99.90;;;;;;4939099;28;20195;-72
2021/08/02 09:43:27;;;;;;;2.73;1.70;;;19.10;99.90;;;;;;4939185;28;20685;-72
2021/08/02 09:45:57;;;;;;;3.73;1.40;;;19.10;99.90;;;;;;4926400;28;20615;-72
2021/08/02 09:48:41;;;;;;;3.73;1.50;;;19.10;99.90;;;;;;4935052;28;20822;-72
2021/08/02 09:51:13;;;;;;;3.60;2.00;;;19.10;99.90;;;;;;4932688;28;21224;-72
2021/08/02 09:53:42;;;;;;;2.47;1.90;;;19.20;99.90;;;;;;4941391;28;20984;-72
2021/08/02 09:56:11;;;;;;;3.60;1.87;;;19.30;99.90;;;;;;4939254;28;21390;-71
2021/08/02 09:58:38;;;;;;;6.13;1.90;;;19.50;99.90;;;;;;4941367;28;20667;-71
2021/08/02 10:01:04;;;;;;;4.40;1.40;;;19.60;99.90;;;;;;4938177;28;21152;-74
2021/08/02 10:03:30;;;;;;;2.53;1.50;;;19.60;99.90;;;;;;4935330;28;20690;-71
2021/08/02 10:05:56;;;;;;;3.00;1.80;;;19.50;99.90;;;;;;4934302;28;20689;-72
2021/08/02 10:08:22;;;;;;;3.10;1.70;;;19.20;99.90;;;;;;4936369;28;20647;-72
2021/08/02 10:10:47;;;;;;;1.50;1.40;;;19.20;99.90;;;;;;4940924;28;20630;-72
2021/08/02 10:13:25;;;;;;;2.30;1.97;;;19.30;99.90;;;;;;4937893;28;20756;-72
2021/08/02 10:15:53;;;;;;;2.07;1.43;;;19.40;99.90;;;;;;4939104;28;20192;-72
2021/08/02 10:18:21;;;;;;;3.50;1.80;;;19.60;99.90;;;;;;4937238;28;20817;-72
2021/08/02 10:20:48;;;;;;;2.20;1.63;;;19.60;99.90;;;;;;4942005;28;20615;-72
2021/08/02 10:23:23;;;;;;;2.67;1.53;;;19.80;99.90;;;;;;4939548;28;21234;-72
2021/08/02 10:25:48;;;;;;;1.93;1.70;;;19.70;99.90;;;;;;4935156;29;21008;-72
2021/08/02 10:28:19;;;;;;;2.03;1.50;;;19.90;99.90;;;;;;4941264;28;20626;-72
2021/08/02 10:31:00;;;;;;;4.30;1.70;;;20.00;99.90;;;;;;4945555;28;20324;-73
2021/08/02 10:33:37;;;;;;;3.43;1.60;;;20.00;99.90;;;;;;4945006;28;20630;-73
2021/08/02 10:36:18;;;;;;;1.77;1.67;;;20.00;99.90;;;;;;4947352;29;20618;-73
2021/08/02 10:38:49;;;;;;;6.37;1.90;;;20.10;99.90;;;;;;4934332;29;20670;-72
2021/08/02 10:41:27;;;;;;;1.67;1.40;;;20.30;99.90;;;;;;4938548;28;20725;-72
2021/08/02 10:43:54;;;;;;;3.93;2.00;;;20.30;99.90;;;;;;4927263;28;20995;-73
2021/08/02 10:46:28;;;;;;;3.67;1.77;;;20.30;99.90;;;;;;4936887;29;20614;-73
2021/08/02 10:49:06;;;;;;;3.03;1.60;;;20.10;99.90;;;;;;4953134;28;20650;-73
2021/08/02 10:51:31;;;;;;;1.50;1.40;;;19.80;99.90;;;;;;4940822;28;20651;-72
2021/08/02 10:53:59;;;;;;;2.60;1.23;;;19.60;99.90;;;;;;4941279;28;20750;-73
2021/08/02 10:56:26;;;;;;;2.63;1.63;;;19.50;99.90;;;;;;4949390;29;20270;-73
2021/08/02 10:58:52;;;;;;;2.70;1.90;;;19.40;99.90;;;;;;4936010;28;20657;-72
2021/08/02 11:01:20;;;;;;;1.57;1.47;;;19.20;99.90;;;;;;4937758;28;20630;-72
2021/08/02 11:03:46;;;;;;;2.07;1.97;;;19.10;99.90;;;;;;4937314;28;20271;-72
2021/08/02 11:06:14;;;;;;;3.00;1.87;;;19.00;99.90;;;;;;4938948;28;20619;-73
2021/08/02 11:09:05;;;;;;;3.70;2.03;;;18.80;99.90;;;;;;4933706;28;20304;-73
2021/08/02 11:11:37;;;;;;;3.97;2.03;;;18.60;99.90;;;;;;4939313;28;21236;-72
2021/08/02 11:14:11;;;;;;;2.30;1.80;;;18.50;99.90;;;;;;4947636;29;20975;-72
2021/08/02 11:16:46;;;;;;;4.00;2.07;;;18.40;99.90;;;;;;4938174;28;20626;-72
2021/08/02 11:19:21;;;;;;;3.83;1.97;;;18.40;99.90;;;;;;4925239;28;20650;-72
2021/08/02 11:21:48;;;;;;;5.13;1.80;;;18.40;99.90;;;;;;4942163;28;20646;-72
2021/08/02 11:24:14;;;;;;;2.10;1.53;;;18.40;99.90;;;;;;4940906;29;20620;-72
2021/08/02 11:26:53;;;;;;;2.00;1.50;;;18.50;99.90;;;;;;4929074;28;20626;-72
2021/08/02 11:29:24;;;;;;;1.70;1.40;;;18.60;99.90;;;;;;4941834;28;20690;-72
2021/08/02 11:32:13;;;;;;;1.83;1.50;;;18.70;99.90;;;;;;4941707;28;21229;-73
2021/08/02 11:34:44;;;;;;;1.90;1.70;;;18.80;99.90;;;;;;4935326;29;21153;-72
2021/08/02 11:37:11;;;;;;;1.93;1.43;;;19.10;99.90;;;;;;4934103;28;21318;-72
2021/08/02 11:39:39;;;;;;;1.93;1.40;;;19.20;99.90;;;;;;4943321;28;20642;-72
2021/08/02 11:42:06;;;;;;;3.53;1.67;;;19.20;99.90;;;;;;4939874;28;20641;-73
2021/08/02 11:44:34;;;;;;;2.50;1.57;;;19.30;99.90;;;;;;4945690;28;20618;-73
2021/08/02 11:47:01;;;;;;;3.90;1.90;;;19.40;99.90;;;;;;4939373;28;20622;-73
2021/08/02 11:49:28;;;;;;;3.00;1.63;;;19.40;99.90;;;;;;4935456;28;20743;-72
2021/08/02 11:51:55;;;;;;;3.40;2.00;;;19.50;99.90;;;;;;4942682;28;20654;-73
2021/08/02 11:54:23;;;;;;;3.47;1.70;;;19.60;99.90;;;;;;4936552;28;20626;-73
2021/08/02 11:56:49;;;;;;;3.87;1.80;;;19.70;99.90;;;;;;4942734;28;20655;-73
2021/08/02 11:59:26;;;;;;;2.30;1.63;;;19.90;99.90;;;;;;4933362;28;21304;-73
2021/08/02 12:01:54;;;;;;;1.63;1.47;;;20.10;99.90;;;;;;4939647;28;20827;-73
2021/08/02 12:04:21;;;;;;;3.47;1.47;;;20.20;99.90;;;;;;4931598;28;20634;-73
2021/08/02 12:06:57;;;;;;;2.17;1.40;;;20.30;99.90;;;;;;4937108;29;20607;-72
2021/08/02 12:09:37;;;;;;;2.80;1.87;;;20.20;99.90;;;;;;4937727;28;20662;-73
2021/08/02 12:12:06;;;;;;;3.30;1.90;;;20.30;99.90;;;;;;4925247;28;20650;-72
2021/08/02 12:14:33;;;;;;;2.93;1.70;;;20.10;99.90;;;;;;4933661;28;20623;-73
2021/08/02 12:17:10;;;;;;;2.50;1.67;;;20.20;99.90;;;;;;4940891;28;20647;-73
2021/08/02 12:19:51;;;;;;;3.00;1.60;;;20.30;99.90;;;;;;4925827;28;20719;-74
2021/08/02 12:22:18;;;;;;;3.33;1.43;;;20.30;99.90;;;;;;4925452;28;21086;-72
2021/08/02 12:24:52;;;;;;;2.57;1.77;;;20.40;99.90;;;;;;4935199;28;20757;-72
2021/08/02 12:27:21;;;;;;;1.90;1.47;;;20.20;99.90;;;;;;4936108;28;20625;-73
2021/08/02 12:30:00;;;;;;;1.87;1.67;;;20.10;99.90;;;;;;4940729;28;20666;-73
2021/08/02 12:32:45;;;;;;;2.53;1.63;;;20.10;99.90;;;;;;4938898;28;21006;-72
2021/08/02 12:35:16;;;;;;;2.33;1.67;;;20.10;99.90;;;;;;4934550;29;20626;-73
2021/08/02 12:37:43;;;;;;;2.10;1.73;;;20.10;99.90;;;;;;4934918;28;20721;-73
2021/08/02 12:40:12;;;;;;;2.90;1.60;;;19.90;99.90;;;;;;4939560;28;20638;-73
2021/08/02 12:42:41;;;;;;;1.70;1.60;;;19.70;99.90;;;;;;4941383;28;21225;-72
2021/08/02 12:45:08;;;;;;;2.20;1.60;;;19.70;99.90;;;;;;4925252;28;20714;-73
2021/08/02 12:47:34;;;;;;;1.83;1.60;;;19.60;99.90;;;;;;4929558;28;20611;-72
2021/08/02 12:50:00;;;;;;;2.97;1.70;;;19.40;99.90;;;;;;4927071;28;21355;-73
2021/08/02 12:52:28;;;;;;;2.40;1.50;;;19.30;99.90;;;;;;4934664;28;20647;-73
2021/08/02 12:54:59;;;;;;;2.80;2.00;;;19.00;99.90;;;;;;4926980;28;20192;-72
2021/08/02 12:57:29;;;;;;;1.67;1.50;;;19.10;99.90;;;;;;4940386;28;20761;-72